createdAt,value
2023-04-26T00:02:53.699Z,49936.28
2023-04-26T00:07:59.690Z,49950.25
2023-04-26T00:13:03.877Z,49930.28
2023-04-26T00:18:08.148Z,49924.28
2023-04-26T00:23:13.893Z,49924.28
2023-04-26T00:28:17.998Z,49936.28
2023-04-26T00:33:22.305Z,49952.25
2023-04-26T00:38:28.117Z,49934.28
2023-04-26T00:43:32.314Z,49944.28
2023-04-26T00:48:37.932Z,49928.28
2023-04-26T00:53:44.431Z,49862.31
2023-04-26T00:58:48.934Z,49830.34
2023-04-26T01:03:53.703Z,49796.34
2023-04-26T01:09:02.109Z,49784.34
2023-04-26T01:14:08.834Z,49764.38
2023-04-26T01:19:13.700Z,49778.38
2023-04-26T01:24:19.467Z,49706.41
2023-04-26T01:29:24.547Z,49782.34
2023-04-26T01:34:28.739Z,49710.41
2023-04-26T01:39:34.809Z,49706.41
2023-04-26T01:44:39.799Z,49718.41
2023-04-26T01:49:44.139Z,49672.44
2023-04-26T01:54:49.802Z,49656.44
2023-04-26T01:59:56.208Z,49698.41
2023-04-26T02:05:00.480Z,49696.41
2023-04-26T02:10:06.715Z,49700.41
2023-04-26T02:15:11.839Z,49690.41
2023-04-26T02:20:16.768Z,49690.41
2023-04-26T02:25:22.619Z,49662.44
2023-04-26T02:30:26.999Z,49670.44
2023-04-26T02:35:31.385Z,49670.44
2023-04-26T02:40:37.438Z,49708.41
2023-04-26T02:45:43.769Z,49698.41
2023-04-26T02:50:50.804Z,49690.41
2023-04-26T02:55:56.501Z,49706.41
2023-04-26T03:01:01.881Z,49722.41
2023-04-26T03:06:06.874Z,49758.38
2023-04-26T03:11:12.536Z,49786.34
2023-04-26T03:16:17.477Z,49802.34
2023-04-26T03:21:22.095Z,49822.34
2023-04-26T03:26:27.746Z,49860.31
2023-04-26T03:31:32.145Z,49886.31
2023-04-26T03:36:36.540Z,49882.31
2023-04-26T03:41:43.823Z,49924.28
2023-04-26T03:46:50.117Z,49944.28
2023-04-26T03:51:54.495Z,49956.25
2023-04-26T03:57:00.502Z,49946.28
2023-04-26T04:02:04.730Z,49950.25
2023-04-26T04:07:09.146Z,49934.28
2023-04-26T04:12:15.065Z,49974.25
2023-04-26T04:17:20.604Z,49934.28
2023-04-26T04:22:25.368Z,49946.28
2023-04-26T04:27:32.277Z,49918.28
2023-04-26T04:32:37.231Z,49942.28
2023-04-26T04:37:41.874Z,49928.28
2023-04-26T04:42:47.781Z,49916.28
2023-04-26T04:47:56.493Z,49910.28
2023-04-26T04:53:01.603Z,49912.28
2023-04-26T04:58:07.430Z,50020.22
2023-04-26T05:03:12.291Z,49944.28
2023-04-26T05:08:16.998Z,49982.25
2023-04-26T05:13:23.025Z,49994.25
2023-04-26T05:18:27.248Z,49958.25
2023-04-26T05:23:32.310Z,49976.25
2023-04-26T05:28:38.019Z,49906.28
2023-04-26T05:34:17.245Z,49972.25
2023-04-26T05:39:26.626Z,49972.25
2023-04-26T05:44:32.591Z,49994.25
2023-04-26T05:49:37.327Z,50060.22
2023-04-26T05:54:41.761Z,50204.13
2023-04-26T05:59:48.356Z,50300.09
2023-04-26T06:04:54.553Z,50270.09
2023-04-26T06:09:59.282Z,50402.06
2023-04-26T06:15:05.381Z,50462.03
2023-04-26T06:20:12.089Z,50342.06
2023-04-26T06:25:16.752Z,50607.97
2023-04-26T06:30:22.800Z,50649.97
2023-04-26T06:35:27.967Z,50669.94
2023-04-26T06:40:32.690Z,50452.03
2023-04-26T06:45:39.656Z,50370.06
2023-04-26T06:50:44.880Z,50340.06
2023-04-26T06:55:49.381Z,49906.28
2023-04-26T07:00:55.239Z,49918.28
2023-04-26T07:05:59.560Z,50436.03
2023-04-26T07:11:04.039Z,50296.09
2023-04-26T07:16:10.264Z,49964.25
2023-04-26T07:21:15.072Z,49908.28
2023-04-26T07:26:19.272Z,50022.22
2023-04-26T07:31:25.592Z,49896.28
2023-04-26T07:36:29.938Z,49856.31
2023-04-26T07:41:34.321Z,50300.09
2023-04-26T07:46:39.854Z,50078.19
2023-04-26T07:51:45.869Z,49834.34
2023-04-26T07:56:50.500Z,49760.38
2023-04-26T08:01:56.353Z,49888.31
2023-04-26T08:07:01.740Z,49966.25
2023-04-26T08:12:06.790Z,49992.25
2023-04-26T08:17:12.583Z,50196.16
2023-04-26T08:22:17.260Z,50242.13
2023-04-26T08:27:21.770Z,50216.13
2023-04-26T08:32:27.745Z,50360.06
2023-04-26T08:37:31.958Z,50182.16
2023-04-26T08:42:41.271Z,50060.22
2023-04-26T08:47:50.171Z,50206.13
2023-04-26T08:52:54.821Z,49980.25
2023-04-26T08:57:59.887Z,49788.34
2023-04-26T09:03:05.866Z,49800.34
2023-04-26T09:08:10.711Z,49878.31
2023-04-26T09:13:15.852Z,50014.22
2023-04-26T09:18:23.168Z,49832.34
2023-04-26T09:23:27.517Z,49846.31
2023-04-26T09:28:31.708Z,49990.25
2023-04-26T09:33:38.098Z,49800.34
2023-04-26T09:38:44.375Z,49724.41
2023-04-26T09:43:51.672Z,49804.34
2023-04-26T09:49:04.050Z,49936.28
2023-04-26T09:54:08.221Z,49980.25
2023-04-26T09:59:12.652Z,49994.25
2023-04-26T10:04:18.787Z,49970.25
2023-04-26T10:09:23.171Z,49884.31
2023-04-26T10:14:27.801Z,49770.38
2023-04-26T10:19:35.543Z,49786.34
2023-04-26T10:24:39.923Z,49970.25
2023-04-26T10:30:09.662Z,49822.34
2023-04-26T10:35:17.444Z,49712.41
2023-04-26T10:40:26.031Z,49732.38
2023-04-26T10:45:30.919Z,49774.38
2023-04-26T10:51:12.797Z,49700.41
2023-04-26T10:56:54.535Z,49718.41
2023-04-26T11:02:02.398Z,49754.38
2023-04-26T11:07:08.579Z,49704.41
2023-04-26T11:12:13.878Z,49896.28
2023-04-26T11:17:18.453Z,49882.31
2023-04-26T11:22:24.977Z,49870.31
2023-04-26T11:27:29.569Z,49878.31
2023-04-26T11:32:35.068Z,49832.34
2023-04-26T11:37:40.756Z,49734.38
2023-04-26T11:42:46.407Z,49666.44
2023-04-26T11:47:50.999Z,49758.38
2023-04-26T11:52:58.482Z,49844.31
2023-04-26T11:58:04.179Z,49934.28
2023-04-26T12:03:11.306Z,49938.28
2023-04-26T12:08:18.470Z,50064.22
2023-04-26T12:13:23.114Z,50060.22
2023-04-26T12:18:32.579Z,50014.22
2023-04-26T12:23:42.107Z,50046.22
2023-04-26T12:28:47.120Z,50010.22
2023-04-26T12:33:51.443Z,50062.22
2023-04-26T12:38:58.205Z,49982.25
2023-04-26T12:44:02.686Z,49992.25
2023-04-26T12:49:07.753Z,50094.19
2023-04-26T12:54:13.372Z,50054.22
2023-04-26T12:59:18.020Z,50090.19
2023-04-26T13:04:22.448Z,49976.25
2023-04-26T13:09:28.635Z,49810.34
2023-04-26T13:14:33.704Z,49730.38
2023-04-26T13:19:38.031Z,49740.38
2023-04-26T13:24:45.127Z,49874.31
2023-04-26T13:29:49.568Z,50188.16
2023-04-26T13:34:54.670Z,50667.94
2023-04-26T13:40:01.352Z,50124.19
2023-04-26T13:45:09.539Z,50014.22
2023-04-26T13:50:14.182Z,49790.34
2023-04-26T13:55:19.976Z,49770.38
2023-04-26T14:00:24.849Z,49814.34
2023-04-26T14:05:29.207Z,50098.19
2023-04-26T14:10:34.821Z,50308.09
2023-04-26T14:15:39.169Z,50512.00
2023-04-26T14:20:43.852Z,50394.06
2023-04-26T14:25:53.121Z,49976.25
2023-04-26T14:30:57.430Z,49794.34
2023-04-26T14:36:01.977Z,49858.31
2023-04-26T14:41:07.599Z,50302.09
2023-04-26T14:46:11.886Z,50318.09
2023-04-26T14:51:16.316Z,50056.22
2023-04-26T14:56:22.194Z,49940.28
2023-04-26T15:01:26.751Z,49982.25
2023-04-26T15:06:33.648Z,50070.19
2023-04-26T15:11:39.195Z,50158.16
2023-04-26T15:16:43.612Z,50128.19
2023-04-26T15:21:48.039Z,50032.22
2023-04-26T15:26:53.645Z,49896.28
2023-04-26T15:31:58.032Z,49970.25
2023-04-26T15:37:02.256Z,49940.28
2023-04-26T15:42:07.965Z,49854.31
2023-04-26T15:47:12.514Z,49772.38
2023-04-26T15:52:17.404Z,49714.41
2023-04-26T15:57:23.291Z,49744.38
2023-04-26T16:02:28.194Z,49732.38
2023-04-26T16:07:33.072Z,49696.41
2023-04-26T16:12:40.062Z,49650.44
2023-04-26T16:17:45.055Z,49616.47
2023-04-26T16:22:50.126Z,49634.44
2023-04-26T16:27:55.778Z,49588.47
2023-04-26T16:32:59.982Z,49588.47
2023-04-26T16:38:04.221Z,49610.47
2023-04-26T16:43:14.393Z,49620.47
2023-04-26T16:48:19.166Z,49586.47
2023-04-26T16:53:23.710Z,49556.50
2023-04-26T16:58:29.230Z,49558.50
2023-04-26T17:03:33.418Z,49520.53
2023-04-26T17:08:37.935Z,49508.53
2023-04-26T17:13:43.821Z,49516.53
2023-04-26T17:18:48.042Z,49578.47
2023-04-26T17:23:52.427Z,49572.50
2023-04-26T17:28:58.030Z,49550.50
2023-04-26T17:34:04.732Z,49510.53
2023-04-26T17:39:09.582Z,49486.53
2023-04-26T17:44:15.170Z,49484.53
2023-04-26T17:49:21.159Z,49496.53
2023-04-26T17:54:26.036Z,49514.53
2023-04-26T17:59:31.863Z,49482.53
2023-04-26T18:04:36.418Z,49462.56
2023-04-26T18:09:40.729Z,49482.53
2023-04-26T18:14:46.466Z,49484.53
2023-04-26T18:19:51.147Z,49426.59
2023-04-26T18:24:55.401Z,49480.53
2023-04-26T18:30:02.232Z,49502.53
2023-04-26T18:35:07.647Z,49496.53
2023-04-26T18:40:12.914Z,49474.56
2023-04-26T18:45:18.719Z,49434.56
2023-04-26T18:50:23.054Z,49478.53
2023-04-26T18:55:27.287Z,49470.56
2023-04-26T19:00:33.834Z,49474.56
2023-04-26T19:05:41.891Z,49482.53
2023-04-26T19:10:46.061Z,49466.56
2023-04-26T19:15:52.079Z,49434.56
2023-04-26T19:20:56.413Z,49462.56
2023-04-26T19:26:05.338Z,49448.56
2023-04-26T19:31:10.953Z,49456.56
2023-04-26T19:36:15.120Z,49434.56
2023-04-26T19:41:19.243Z,49456.56
2023-04-26T19:46:25.075Z,49468.56
2023-04-26T19:51:29.637Z,49438.56
2023-04-26T19:56:34.014Z,49406.59
2023-04-26T20:01:39.822Z,49444.56
2023-04-26T20:06:44.413Z,49458.56
2023-04-26T20:11:49.872Z,49428.59
2023-04-26T20:16:55.924Z,49484.53
2023-04-26T20:22:00.137Z,49454.56
2023-04-26T20:27:04.794Z,49478.53
2023-04-26T20:32:10.604Z,49464.56
2023-04-26T20:37:15.130Z,49470.56
2023-04-26T20:42:19.459Z,49436.56
2023-04-26T20:47:25.087Z,49446.56
2023-04-26T20:52:29.675Z,49426.59
2023-04-26T20:57:33.832Z,49414.59
2023-04-26T21:02:39.853Z,49424.59
2023-04-26T21:07:44.376Z,49428.59
2023-04-26T21:12:48.793Z,49430.56
2023-04-26T21:17:54.729Z,49398.59
2023-04-26T21:22:59.201Z,49406.59
2023-04-26T21:28:03.518Z,49418.59
2023-04-26T21:33:09.746Z,49420.59
2023-04-26T21:38:14.245Z,49404.59
2023-04-26T21:43:20.189Z,49436.56
2023-04-26T21:48:26.466Z,49418.59
2023-04-26T21:53:30.748Z,49434.56
2023-04-26T21:58:35.233Z,49462.56
2023-04-26T22:03:41.407Z,49408.59
2023-04-26T22:08:45.896Z,49454.56
2023-04-26T22:13:50.185Z,49442.56
2023-04-26T22:18:56.205Z,49450.56
2023-04-26T22:24:01.333Z,49418.59
2023-04-26T22:29:05.670Z,49436.56
2023-04-26T22:34:11.665Z,49466.56
2023-04-26T22:39:16.270Z,49436.56
2023-04-26T22:44:20.439Z,49444.56
2023-04-26T22:49:27.008Z,49444.56
2023-04-26T22:54:31.428Z,49480.53
2023-04-26T22:59:35.895Z,49450.56
2023-04-26T23:04:41.680Z,49490.53
2023-04-26T23:09:46.259Z,49470.56
2023-04-26T23:14:50.874Z,49446.56
2023-04-26T23:19:56.680Z,49464.56
2023-04-26T23:25:01.296Z,49490.53
2023-04-26T23:30:06.499Z,49446.56
2023-04-26T23:35:12.579Z,49446.56
2023-04-26T23:40:16.942Z,49442.56
2023-04-26T23:45:21.156Z,49452.56
2023-04-26T23:50:27.130Z,49468.56
2023-04-26T23:55:31.708Z,49438.56
